Time;durP1;ratioP1;P1;durP2;ratioP2;P2;SDS_P1;SDS_P2;PMS_P1;PMS_P2;Temp;Humidity;BMP_temperature;BMP_pressure;BME280_temperature;BME280_humidity;BME280_pressure;Samples;Min_cycle;Max_cycle;Signal;HPM_P1;HPM_P2
2021/01/08 00:02:23;;;;;;;3.65;3.03;;;5.20;92.90;;;;;;5016132;28;20129;-70
2021/01/08 00:04:49;;;;;;;3.10;2.80;;;5.20;92.90;;;;;;5015498;28;20432;-70
2021/01/08 00:07:15;;;;;;;4.57;3.40;;;5.20;93.00;;;;;;5015837;28;20022;-69
2021/01/08 00:09:40;;;;;;;3.67;3.05;;;5.10;93.00;;;;;;5014485;28;20037;-69
2021/01/08 00:12:07;;;;;;;3.97;3.28;;;5.10;93.30;;;;;;5015010;28;20041;-70
2021/01/08 00:14:33;;;;;;;3.53;3.20;;;5.20;93.00;;;;;;5031243;28;20052;-69
2021/01/08 00:16:58;;;;;;;3.83;3.30;;;5.20;92.90;;;;;;5015109;28;20470;-69
2021/01/08 00:19:24;;;;;;;3.53;2.88;;;5.20;92.90;;;;;;5015561;28;20026;-69
2021/01/08 00:21:50;;;;;;;6.40;2.72;;;5.30;92.90;;;;;;5015915;28;20026;-69
2021/01/08 00:24:15;;;;;;;3.13;2.47;;;5.20;92.80;;;;;;5013524;28;20107;-69
2021/01/08 00:26:42;;;;;;;3.25;2.60;;;5.20;92.80;;;;;;5015856;28;20018;-70
2021/01/08 00:29:09;;;;;;;4.35;2.80;;;5.20;92.80;;;;;;5015290;28;20037;-69
2021/01/08 00:31:39;;;;;;;2.97;2.67;;;5.10;92.80;;;;;;5015310;28;20022;-69
2021/01/08 00:34:06;;;;;;;3.90;2.80;;;5.10;92.80;;;;;;5015286;28;20552;-71
2021/01/08 00:36:32;;;;;;;3.03;2.72;;;5.00;93.20;;;;;;5015811;28;20427;-70
2021/01/08 00:38:57;;;;;;;2.80;2.40;;;5.00;93.00;;;;;;5014844;28;20057;-72
2021/01/08 00:41:28;;;;;;;2.75;2.50;;;5.00;93.00;;;;;;5015279;28;20225;-69
2021/01/08 00:43:54;;;;;;;9.27;4.88;;;5.00;93.10;;;;;;5015456;28;20033;-73
2021/01/08 00:46:19;;;;;;;4.18;3.15;;;5.00;93.10;;;;;;5014769;28;20030;-70
2021/01/08 00:48:47;;;;;;;2.58;2.38;;;5.00;93.10;;;;;;5015163;28;20025;-71
2021/01/08 00:51:13;;;;;;;3.53;2.38;;;5.10;93.20;;;;;;5015146;28;20052;-73
2021/01/08 00:53:40;;;;;;;2.95;2.40;;;5.10;93.10;;;;;;5014106;28;20029;-70
2021/01/08 00:56:15;;;;;;;4.03;2.95;;;5.10;93.00;;;;;;5014895;28;20096;-69
2021/01/08 00:58:40;;;;;;;4.97;2.97;;;5.10;93.00;;;;;;5015673;28;20030;-72
2021/01/08 01:01:05;;;;;;;4.25;3.22;;;5.10;93.00;;;;;;5013072;28;20058;-71
2021/01/08 01:03:32;;;;;;;3.28;2.40;;;5.10;93.00;;;;;;5004589;28;20014;-69
2021/01/08 01:05:57;;;;;;;3.78;3.38;;;5.10;93.00;;;;;;5013489;28;20092;-72
2021/01/08 01:08:23;;;;;;;3.25;2.45;;;5.10;93.00;;;;;;5013735;28;20400;-71
2021/01/08 01:10:48;;;;;;;3.00;2.70;;;5.10;93.10;;;;;;5014520;28;20021;-71
2021/01/08 01:13:14;;;;;;;4.85;2.80;;;5.10;93.10;;;;;;5013594;28;20035;-72
2021/01/08 01:15:39;;;;;;;5.65;2.90;;;5.10;93.00;;;;;;5013295;28;20030;-70
2021/01/08 01:18:05;;;;;;;2.92;2.65;;;5.10;92.90;;;;;;5013925;28;20193;-68
2021/01/08 01:20:30;;;;;;;2.80;2.35;;;5.10;92.90;;;;;;5011369;28;20034;-69
2021/01/08 01:22:56;;;;;;;3.60;2.90;;;5.20;93.00;;;;;;5011872;28;20018;-72
2021/01/08 01:25:21;;;;;;;2.53;2.10;;;5.20;93.10;;;;;;5013046;28;20025;-72
2021/01/08 01:27:47;;;;;;;4.05;2.80;;;5.10;92.80;;;;;;5013789;28;20607;-71
2021/01/08 01:30:13;;;;;;;3.13;2.83;;;5.00;92.80;;;;;;5029109;28;20073;-70
2021/01/08 01:32:38;;;;;;;2.97;2.67;;;5.00;92.90;;;;;;5013149;28;20099;-68
2021/01/08 01:35:04;;;;;;;2.67;2.47;;;5.00;93.00;;;;;;5013384;28;20471;-69
2021/01/08 01:37:30;;;;;;;2.50;2.30;;;5.00;92.90;;;;;;5014512;28;20037;-70
2021/01/08 01:39:55;;;;;;;2.55;2.30;;;4.90;92.90;;;;;;5014084;28;20030;-68
2021/01/08 01:42:21;;;;;;;3.80;3.00;;;4.90;93.00;;;;;;5013376;28;20076;-67
2021/01/08 01:44:46;;;;;;;3.88;2.40;;;5.00;93.10;;;;;;5014616;28;20066;-68
2021/01/08 01:47:12;;;;;;;2.63;2.35;;;5.00;93.10;;;;;;5013848;28;20470;-68
2021/01/08 01:49:38;;;;;;;2.40;2.20;;;5.00;92.90;;;;;;5013251;28;20037;-69
2021/01/08 01:52:03;;;;;;;2.53;2.33;;;5.00;92.90;;;;;;5014292;28;20018;-68
2021/01/08 01:54:29;;;;;;;2.65;2.00;;;5.00;92.90;;;;;;5012862;28;20022;-69
2021/01/08 01:56:55;;;;;;;2.28;2.10;;;4.90;92.90;;;;;;5011825;28;20018;-68
2021/01/08 01:59:21;;;;;;;3.65;2.40;;;4.80;92.90;;;;;;5013700;28;20022;-71
2021/01/08 02:01:46;;;;;;;3.35;2.78;;;4.80;93.00;;;;;;5013660;28;20049;-71
2021/01/08 02:04:12;;;;;;;2.88;2.65;;;4.80;93.10;;;;;;5011834;28;20033;-71
2021/01/08 02:06:38;;;;;;;3.38;2.88;;;4.80;93.10;;;;;;5013903;28;20109;-68
2021/01/08 02:09:10;;;;;;;5.28;2.70;;;4.80;93.20;;;;;;5013419;28;20069;-69
2021/01/08 02:11:38;;;;;;;3.65;2.80;;;4.90;93.20;;;;;;5013199;28;20026;-69
2021/01/08 02:14:15;;;;;;;3.15;2.58;;;4.90;93.10;;;;;;5013383;28;20030;-69
2021/01/08 02:16:41;;;;;;;3.00;2.67;;;4.90;93.10;;;;;;5013126;28;20498;-71
2021/01/08 02:19:14;;;;;;;3.00;2.47;;;5.00;93.10;;;;;;5013101;28;20022;-68
2021/01/08 02:21:48;;;;;;;2.58;2.38;;;4.90;93.00;;;;;;5013693;28;20363;-68
2021/01/08 02:24:32;;;;;;;3.65;2.92;;;4.90;93.00;;;;;;5012624;28;20022;-70
2021/01/08 02:26:59;;;;;;;3.92;2.85;;;4.80;93.00;;;;;;5012263;28;20044;-71
2021/01/08 02:29:26;;;;;;;5.43;2.38;;;4.80;93.10;;;;;;5012900;28;20037;-70
2021/01/08 02:31:52;;;;;;;2.10;1.90;;;4.80;93.20;;;;;;5011494;28;20524;-68
2021/01/08 02:34:18;;;;;;;3.25;2.95;;;4.70;93.20;;;;;;5028346;28;20029;-69
2021/01/08 02:36:45;;;;;;;5.35;2.75;;;4.80;93.30;;;;;;5013351;28;20096;-69
2021/01/08 02:39:12;;;;;;;3.78;3.42;;;4.80;93.30;;;;;;5012266;28;20076;-72
2021/01/08 02:41:42;;;;;;;5.30;3.17;;;4.70;93.20;;;;;;5013323;28;20018;-69
2021/01/08 02:44:09;;;;;;;2.67;2.47;;;4.70;93.30;;;;;;5013175;28;20036;-71
2021/01/08 02:46:35;;;;;;;2.83;2.63;;;4.70;93.30;;;;;;5012545;28;20022;-71
2021/01/08 02:49:00;;;;;;;3.30;2.55;;;4.70;93.30;;;;;;5011397;28;20095;-68
2021/01/08 02:51:26;;;;;;;17.85;3.30;;;4.60;93.40;;;;;;5011558;28;20021;-69
2021/01/08 02:53:54;;;;;;;3.85;3.38;;;4.60;93.40;;;;;;5012219;28;20029;-70
2021/01/08 02:56:24;;;;;;;2.75;2.35;;;4.70;93.50;;;;;;5013119;28;20097;-68
2021/01/08 02:58:50;;;;;;;2.50;2.30;;;4.70;93.50;;;;;;5012126;28;20097;-68
2021/01/08 03:01:17;;;;;;;2.75;2.53;;;4.80;93.50;;;;;;5011107;28;20057;-68
2021/01/08 03:03:43;;;;;;;5.57;3.85;;;4.80;93.50;;;;;;5012966;28;20053;-68
2021/01/08 03:06:09;;;;;;;2.80;2.60;;;4.80;93.50;;;;;;5011651;28;20026;-69
2021/01/08 03:08:35;;;;;;;37.17;3.42;;;4.90;93.40;;;;;;5012848;28;20026;-68
2021/01/08 03:11:07;;;;;;;2.85;2.35;;;4.90;93.30;;;;;;5012524;28;20068;-68
2021/01/08 03:13:34;;;;;;;2.60;2.38;;;5.00;93.30;;;;;;5011141;28;20031;-69
2021/01/08 03:16:00;;;;;;;2.88;2.55;;;5.00;93.30;;;;;;5012197;28;20076;-69
2021/01/08 03:18:25;;;;;;;3.60;2.67;;;5.00;93.30;;;;;;5012440;28;20022;-68
2021/01/08 03:20:51;;;;;;;3.17;2.85;;;5.10;93.20;;;;;;5012001;28;20041;-68
2021/01/08 03:23:16;;;;;;;3.40;3.10;;;5.10;93.20;;;;;;5011009;28;20033;-69
2021/01/08 03:25:42;;;;;;;3.83;2.70;;;5.10;93.10;;;;;;5012624;28;20030;-68
2021/01/08 03:28:07;;;;;;;2.83;2.63;;;5.10;93.00;;;;;;5011274;28;20026;-69
2021/01/08 03:30:33;;;;;;;3.33;2.90;;;5.10;93.00;;;;;;5012588;28;20061;-69
2021/01/08 03:32:58;;;;;;;4.25;3.33;;;5.10;93.10;;;;;;5012362;28;20030;-67
2021/01/08 03:35:24;;;;;;;3.47;3.17;;;5.00;93.40;;;;;;5011546;28;20026;-71
2021/01/08 03:37:49;;;;;;;3.92;3.10;;;5.00;93.10;;;;;;5012381;28;20022;-69
2021/01/08 03:40:15;;;;;;;3.13;2.83;;;5.10;93.20;;;;;;5011997;28;20474;-70
2021/01/08 03:42:40;;;;;;;3.08;2.78;;;5.10;93.10;;;;;;5011903;28;20021;-70
2021/01/08 03:45:06;;;;;;;4.60;2.42;;;5.10;93.00;;;;;;5011763;28;20414;-69
2021/01/08 03:47:32;;;;;;;3.35;2.78;;;5.10;93.00;;;;;;5012331;28;20034;-69
2021/01/08 03:49:58;;;;;;;2.80;2.60;;;5.20;93.00;;;;;;5011508;28;20029;-68
2021/01/08 03:52:23;;;;;;;3.20;2.90;;;5.10;93.00;;;;;;5012078;28;20030;-69
2021/01/08 03:54:49;;;;;;;2.85;2.65;;;5.10;93.00;;;;;;5012293;28;20029;-68
2021/01/08 03:57:14;;;;;;;3.67;2.80;;;5.20;93.10;;;;;;5011327;28;20084;-68
2021/01/08 03:59:40;;;;;;;2.90;2.70;;;5.10;92.90;;;;;;5012020;28;20100;-67
2021/01/08 04:02:06;;;;;;;3.17;2.80;;;5.10;92.90;;;;;;5011014;28;20046;-68
2021/01/08 04:04:31;;;;;;;4.20;3.10;;;5.20;92.90;;;;;;5012345;28;20048;-69
2021/01/08 04:06:57;;;;;;;3.80;3.30;;;5.10;92.90;;;;;;5011978;28;20026;-71
2021/01/08 04:09:22;;;;;;;3.40;3.10;;;5.10;93.00;;;;;;5011080;28;20034;-69
2021/01/08 04:11:48;;;;;;;3.72;2.80;;;5.10;93.10;;;;;;5012419;28;20026;-69
2021/01/08 04:14:13;;;;;;;3.03;2.80;;;5.10;93.00;;;;;;5011781;28;20076;-69
2021/01/08 04:16:41;;;;;;;3.92;2.78;;;5.10;93.00;;;;;;5011373;28;20018;-70
2021/01/08 04:19:08;;;;;;;3.85;3.30;;;5.00;93.00;;;;;;5011477;28;20071;-68
2021/01/08 04:21:34;;;;;;;3.72;3.08;;;5.00;93.00;;;;;;5012306;28;20034;-68
2021/01/08 04:23:59;;;;;;;3.30;3.00;;;5.00;93.00;;;;;;5011336;28;20033;-69
2021/01/08 04:26:25;;;;;;;3.58;3.28;;;5.00;93.10;;;;;;5011742;28;20028;-70
2021/01/08 04:28:50;;;;;;;3.85;3.45;;;5.00;93.20;;;;;;5014390;28;20033;-67
2021/01/08 04:31:17;;;;;;;3.90;3.42;;;5.10;93.20;;;;;;5013319;28;20378;-67
2021/01/08 04:33:43;;;;;;;4.05;3.30;;;5.10;93.20;;;;;;5015705;28;20045;-67
2021/01/08 04:36:09;;;;;;;3.97;3.58;;;5.10;93.20;;;;;;5015211;28;20018;-68
2021/01/08 04:38:39;;;;;;;3.70;3.38;;;5.10;93.10;;;;;;5015030;28;20026;-69
2021/01/08 04:41:05;;;;;;;4.50;3.92;;;5.20;93.00;;;;;;5015068;28;20110;-72
2021/01/08 04:43:32;;;;;;;3.97;3.35;;;5.20;93.00;;;;;;5014275;28;20029;-72
2021/01/08 04:46:19;;;;;;;3.58;3.28;;;5.20;93.00;;;;;;5014434;28;20018;-69
2021/01/08 04:48:46;;;;;;;4.15;3.53;;;5.20;92.90;;;;;;5015200;28;20394;-70
2021/01/08 04:51:13;;;;;;;4.18;3.05;;;5.20;92.90;;;;;;5014418;28;20021;-68
2021/01/08 04:53:39;;;;;;;5.38;3.70;;;5.30;92.90;;;;;;5015251;28;20030;-68
2021/01/08 04:56:07;;;;;;;3.13;2.83;;;5.20;92.90;;;;;;5014647;28;20087;-68
2021/01/08 04:58:33;;;;;;;3.30;3.00;;;5.20;92.90;;;;;;5013554;28;20028;-68
2021/01/08 05:01:00;;;;;;;4.53;2.83;;;5.10;92.80;;;;;;5013433;28;20133;-68
2021/01/08 05:03:29;;;;;;;2.90;2.70;;;5.00;92.90;;;;;;5013592;28;20018;-70
2021/01/08 05:05:56;;;;;;;2.95;2.75;;;5.00;93.00;;;;;;5014083;28;20364;-68
2021/01/08 05:08:22;;;;;;;3.42;3.13;;;5.00;93.10;;;;;;5013445;28;20068;-70
2021/01/08 05:10:48;;;;;;;3.95;3.30;;;5.00;93.10;;;;;;5014666;28;20037;-67
2021/01/08 05:13:14;;;;;;;3.08;2.80;;;5.00;93.20;;;;;;5013803;28;20054;-67
2021/01/08 05:15:42;;;;;;;4.20;2.80;;;5.10;93.10;;;;;;5014941;28;20449;-67
2021/01/08 05:18:09;;;;;;;3.85;3.25;;;5.00;93.10;;;;;;5014555;28;20080;-68
2021/01/08 05:20:35;;;;;;;3.67;3.20;;;5.10;93.10;;;;;;5014058;28;20018;-67
2021/01/08 05:23:03;;;;;;;5.18;3.15;;;5.10;93.10;;;;;;5014337;28;20026;-67
2021/01/08 05:25:29;;;;;;;3.97;3.10;;;5.10;93.10;;;;;;5014478;28;20080;-67
2021/01/08 05:27:54;;;;;;;4.25;3.42;;;5.10;93.10;;;;;;5013630;28;20470;-68
2021/01/08 05:30:26;;;;;;;4.03;3.13;;;5.10;93.10;;;;;;5012787;28;20056;-69
2021/01/08 05:33:04;;;;;;;3.63;2.92;;;5.10;93.00;;;;;;5014647;28;20056;-69
2021/01/08 05:35:32;;;;;;;3.75;3.20;;;5.10;93.10;;;;;;5013843;28;20025;-69
2021/01/08 05:38:04;;;;;;;3.95;3.55;;;5.10;93.00;;;;;;5014284;28;20474;-68
2021/01/08 05:40:30;;;;;;;;;;;5.10;93.10;;;;;;5013865;28;20180;-72
2021/01/08 05:42:57;;;;;;;5.00;3.92;;;5.10;93.10;;;;;;5012819;28;19905;-72
2021/01/08 05:45:25;;;;;;;4.32;3.90;;;5.10;93.10;;;;;;5014224;28;20927;-69
2021/01/08 05:47:53;;;;;;;3.60;3.15;;;5.20;93.00;;;;;;5013543;28;20076;-68
2021/01/08 05:50:21;;;;;;;3.72;3.42;;;5.10;93.00;;;;;;5013855;28;20399;-68
2021/01/08 05:52:50;;;;;;;3.95;3.50;;;5.10;93.00;;;;;;5014105;28;20064;-70
2021/01/08 05:55:15;;;;;;;5.53;3.20;;;5.10;93.00;;;;;;5012842;28;20368;-70
2021/01/08 05:57:41;;;;;;;5.53;3.67;;;5.10;93.00;;;;;;5014075;28;20049;-71
2021/01/08 06:00:08;;;;;;;3.30;2.90;;;5.10;93.10;;;;;;5013443;28;20117;-71
2021/01/08 06:02:35;;;;;;;3.75;3.30;;;5.00;93.10;;;;;;5008127;28;20069;-68
2021/01/08 06:05:00;;;;;;;3.72;3.42;;;5.00;93.10;;;;;;5012620;28;20057;-68
2021/01/08 06:07:28;;;;;;;4.00;3.60;;;5.00;93.20;;;;;;5013190;28;20065;-73
2021/01/08 06:09:59;;;;;;;3.80;3.50;;;5.00;93.20;;;;;;5009646;28;20036;-70
2021/01/08 06:12:24;;;;;;;4.00;3.22;;;5.00;93.20;;;;;;5012998;28;20030;-69
2021/01/08 06:14:51;;;;;;;3.38;3.08;;;5.00;93.10;;;;;;5033534;28;20396;-69
2021/01/08 06:17:19;;;;;;;3.53;3.22;;;5.00;93.10;;;;;;5015406;28;20022;-71
2021/01/08 06:19:45;;;;;;;3.08;2.78;;;5.00;93.10;;;;;;5012599;28;20030;-69
2021/01/08 06:22:11;;;;;;;3.78;3.20;;;5.00;93.20;;;;;;5008387;28;20097;-67
2021/01/08 06:24:37;;;;;;;6.22;3.80;;;4.90;93.30;;;;;;5022630;28;20108;-70
2021/01/08 06:27:03;;;;;;;4.55;3.15;;;5.00;93.30;;;;;;5033112;28;20017;-71
2021/01/08 06:29:33;;;;;;;3.33;3.03;;;5.00;93.30;;;;;;5016779;28;20061;-68
2021/01/08 06:32:16;;;;;;;3.70;3.17;;;5.00;93.30;;;;;;5012777;28;20026;-72
2021/01/08 06:34:46;;;;;;;5.07;3.72;;;5.10;93.20;;;;;;5009111;28;20087;-71
2021/01/08 06:37:18;;;;;;;7.68;4.50;;;5.10;93.20;;;;;;4997887;28;20029;-68
2021/01/08 06:39:46;;;;;;;4.50;4.10;;;5.00;93.20;;;;;;5013367;28;20144;-69
2021/01/08 06:42:30;;;;;;;3.97;3.58;;;5.00;93.20;;;;;;5011765;28;20026;-69
2021/01/08 06:44:57;;;;;;;4.38;3.75;;;4.90;93.40;;;;;;5011125;28;20026;-68
2021/01/08 06:47:23;;;;;;;6.57;4.28;;;4.90;93.40;;;;;;5010151;28;20515;-68
2021/01/08 06:49:53;;;;;;;475.17;32.15;;;4.90;93.40;;;;;;4996200;28;20049;-67
2021/01/08 06:52:21;;;;;;;5.63;4.85;;;4.90;93.40;;;;;;4996314;28;20017;-74
2021/01/08 06:54:53;;;;;;;5.00;4.50;;;4.90;93.50;;;;;;5012559;28;20094;-69
2021/01/08 06:57:19;;;;;;;5.15;4.40;;;4.90;93.70;;;;;;5012337;28;20050;-70
2021/01/08 07:00:04;;;;;;;4.85;4.30;;;4.90;93.70;;;;;;5012294;28;20029;-69
2021/01/08 07:02:31;;;;;;;5.28;4.78;;;4.90;93.70;;;;;;5012690;28;20617;-68
2021/01/08 07:04:59;;;;;;;61.85;8.60;;;5.00;93.70;;;;;;5012177;28;20014;-72
2021/01/08 07:07:27;;;;;;;5.95;5.35;;;5.10;93.70;;;;;;5012917;28;20095;-73
2021/01/08 07:09:56;;;;;;;5.68;4.53;;;5.10;93.60;;;;;;5005757;28;20419;-68
2021/01/08 07:12:23;;;;;;;5.45;4.65;;;5.20;93.50;;;;;;4998134;28;20030;-71
2021/01/08 07:14:49;;;;;;;215.55;16.02;;;5.20;93.40;;;;;;5009691;28;20026;-70
2021/01/08 07:17:15;;;;;;;880.03;43.80;;;5.30;93.30;;;;;;5012410;28;20080;-72
2021/01/08 07:19:42;;;;;;;5.95;5.35;;;5.30;93.30;;;;;;5010516;28;20030;-68
2021/01/08 07:22:12;;;;;;;92.03;9.23;;;5.30;93.30;;;;;;4999273;28;20422;-71
2021/01/08 07:24:38;;;;;;;37.80;7.32;;;5.30;93.20;;;;;;4993190;28;20053;-73
2021/01/08 07:27:16;;;;;;;7.68;6.63;;;5.40;93.30;;;;;;4991669;28;20033;-68
2021/01/08 07:29:49;;;;;;;6.72;5.13;;;5.50;93.20;;;;;;4992941;28;20141;-69
2021/01/08 07:32:37;;;;;;;12.95;11.55;;;5.50;93.10;;;;;;5003999;28;20065;-70
2021/01/08 07:35:24;;;;;;;7.70;6.47;;;5.50;93.00;;;;;;5011730;28;20471;-70
2021/01/08 07:38:05;;;;;;;5.65;5.05;;;5.50;92.80;;;;;;5009125;28;20025;-74
2021/01/08 07:40:37;;;;;;;6.07;5.32;;;5.40;92.80;;;;;;5009595;28;20026;-78
2021/01/08 07:43:10;;;;;;;7.82;4.82;;;5.40;92.90;;;;;;5011422;28;20026;-78
2021/01/08 07:45:55;;;;;;;7.00;6.30;;;5.40;93.00;;;;;;5012286;28;20026;-74
2021/01/08 07:48:34;;;;;;;5.28;4.78;;;5.40;93.00;;;;;;5011906;28;20548;-74
2021/01/08 07:51:07;;;;;;;7.35;6.40;;;5.40;92.90;;;;;;5008435;28;20030;-74
2021/01/08 07:53:44;;;;;;;6.15;5.55;;;5.50;92.90;;;;;;4993030;28;20026;-72
2021/01/08 07:56:10;;;;;;;5.68;4.60;;;5.50;92.90;;;;;;4997410;28;20359;-78
2021/01/08 07:58:37;;;;;;;4.60;4.20;;;5.60;92.80;;;;;;5012341;28;20022;-71
2021/01/08 08:01:04;;;;;;;6.07;5.15;;;5.60;92.80;;;;;;5010968;28;20049;-70
2021/01/08 08:03:29;;;;;;;4.57;4.18;;;5.60;92.70;;;;;;4998312;28;20471;-71
2021/01/08 08:05:55;;;;;;;4.80;4.25;;;5.70;92.70;;;;;;5016136;28;20029;-76
2021/01/08 08:08:20;;;;;;;5.82;4.25;;;5.60;92.60;;;;;;5015266;28;20433;-72
2021/01/08 08:10:46;;;;;;;4.45;4.03;;;5.60;92.60;;;;;;5015569;28;20029;-75
2021/01/08 08:13:15;;;;;;;5.80;5.20;;;5.60;92.40;;;;;;5005117;28;20164;-82
2021/01/08 08:15:47;;;;;;;4.45;4.03;;;5.60;92.50;;;;;;4996106;28;20034;-75
2021/01/08 08:18:14;;;;;;;4.82;4.18;;;5.60;92.50;;;;;;4996170;28;20101;-74
2021/01/08 08:20:40;;;;;;;6.15;4.65;;;5.60;92.60;;;;;;5008661;28;20030;-74
2021/01/08 08:23:14;;;;;;;4.60;4.20;;;5.60;92.60;;;;;;5004815;28;20029;-74
2021/01/08 08:25:40;;;;;;;5.65;3.90;;;5.60;92.60;;;;;;5006108;28;20030;-73
2021/01/08 08:28:05;;;;;;;4.88;4.38;;;5.60;92.60;;;;;;5015604;28;20049;-73
2021/01/08 08:30:31;;;;;;;5.13;4.15;;;5.60;92.60;;;;;;5002243;28;20440;-73
2021/01/08 08:32:58;;;;;;;6.45;4.32;;;5.70;92.50;;;;;;5003916;28;20561;-73
2021/01/08 08:35:23;;;;;;;6.10;5.13;;;5.70;92.40;;;;;;5014273;28;20137;-73
2021/01/08 08:37:53;;;;;;;4.60;4.20;;;5.70;92.30;;;;;;4994720;28;20074;-76
2021/01/08 08:40:24;;;;;;;4.47;4.00;;;5.70;92.30;;;;;;4996352;28;20023;-76
2021/01/08 08:42:54;;;;;;;4.97;4.47;;;5.70;92.30;;;;;;4998420;28;20037;-75
2021/01/08 08:45:26;;;;;;;5.22;4.72;;;5.80;92.30;;;;;;5006842;28;20066;-75
2021/01/08 08:47:53;;;;;;;4.78;4.38;;;5.80;92.30;;;;;;4996014;28;20025;-76
2021/01/08 08:50:20;;;;;;;8.32;4.60;;;5.80;92.30;;;;;;5009204;28;20034;-74
2021/01/08 08:52:45;;;;;;;516.05;31.33;;;5.80;92.30;;;;;;5015708;28;20493;-74
2021/01/08 08:55:32;;;;;;;5.40;4.90;;;5.70;92.30;;;;;;5011137;28;20030;-73
2021/01/08 08:58:19;;;;;;;5.18;4.00;;;5.70;92.40;;;;;;4994929;28;20068;-74
2021/01/08 09:00:45;;;;;;;4.63;4.22;;;5.80;92.30;;;;;;4995645;28;20046;-75
2021/01/08 09:03:19;;;;;;;5.65;4.82;;;5.80;92.30;;;;;;4996037;28;20478;-75
2021/01/08 09:05:46;;;;;;;12.75;9.52;;;5.80;92.30;;;;;;5011552;28;20038;-74
2021/01/08 09:08:25;;;;;;;6.15;4.82;;;5.80;92.30;;;;;;5007913;28;20025;-74
2021/01/08 09:11:02;;;;;;;13.93;4.97;;;5.80;92.20;;;;;;5014744;28;20104;-74
2021/01/08 09:13:43;;;;;;;4.97;4.45;;;5.70;92.10;;;;;;5008014;28;20022;-73
2021/01/08 09:16:16;;;;;;;4.50;4.10;;;5.60;92.20;;;;;;5004354;28;20392;-73
2021/01/08 09:19:07;;;;;;;5.55;4.57;;;5.60;92.30;;;;;;5013218;28;20021;-73
2021/01/08 09:21:39;;;;;;;530.00;26.42;;;5.60;92.20;;;;;;5002152;28;20116;-74
2021/01/08 09:24:09;;;;;;;4.88;3.80;;;5.50;92.20;;;;;;4999948;28;20030;-73
2021/01/08 09:26:37;;;;;;;3.63;3.33;;;5.50;92.20;;;;;;5007090;28;20097;-73
2021/01/08 09:29:03;;;;;;;3.38;2.70;;;5.60;92.20;;;;;;5001017;28;20026;-73
2021/01/08 09:31:43;;;;;;;4.05;2.70;;;5.50;91.80;;;;;;5014411;28;20105;-75
2021/01/08 09:34:10;;;;;;;20.48;3.72;;;5.50;92.00;;;;;;5008908;28;20022;-75
2021/01/08 09:36:37;;;;;;;3.08;2.63;;;5.50;91.60;;;;;;5003908;28;20049;-72
2021/01/08 09:39:05;;;;;;;3.35;2.75;;;5.40;91.70;;;;;;4993508;28;20030;-73
2021/01/08 09:41:34;;;;;;;3.25;2.40;;;5.50;91.70;;;;;;4993020;28;20062;-73
2021/01/08 09:44:02;;;;;;;2.60;2.40;;;5.50;91.60;;;;;;4995494;28;20049;-72
2021/01/08 09:46:28;;;;;;;2.15;1.95;;;5.60;91.80;;;;;;4994738;28;20077;-73
2021/01/08 09:48:55;;;;;;;2.10;1.90;;;5.60;91.40;;;;;;4993634;28;20034;-74
2021/01/08 09:51:22;;;;;;;2.30;1.67;;;5.60;91.20;;;;;;5007659;28;20535;-72
2021/01/08 09:53:54;;;;;;;1.73;1.63;;;5.60;91.20;;;;;;4996707;28;20029;-73
2021/01/08 09:56:21;;;;;;;2.05;1.85;;;5.60;91.20;;;;;;5004839;28;20032;-74
2021/01/08 09:58:47;;;;;;;2.67;2.15;;;5.60;91.20;;;;;;5013783;28;20026;-73
2021/01/08 10:01:13;;;;;;;2.45;2.17;;;5.70;91.30;;;;;;5013298;28;20057;-73
2021/01/08 10:03:49;;;;;;;1.83;1.73;;;5.70;91.30;;;;;;5004227;28;20467;-74
2021/01/08 10:06:15;;;;;;;2.15;1.70;;;5.80;91.30;;;;;;4992876;28;20049;-73
2021/01/08 10:08:40;;;;;;;2.58;2.25;;;6.00;91.10;;;;;;5001466;28;20073;-72
2021/01/08 10:11:06;;;;;;;1.90;1.80;;;6.00;90.70;;;;;;5008510;28;20045;-72
2021/01/08 10:13:34;;;;;;;3.00;2.20;;;6.00;90.80;;;;;;5006485;28;20030;-73
2021/01/08 10:16:09;;;;;;;2.42;2.03;;;6.00;90.90;;;;;;4992860;28;20027;-74
2021/01/08 10:18:37;;;;;;;2.13;1.80;;;6.10;91.00;;;;;;5005410;28;20499;-77
2021/01/08 10:21:09;;;;;;;3.10;2.00;;;6.10;91.10;;;;;;5001742;28;20175;-73
2021/01/08 10:23:43;;;;;;;2.38;2.13;;;6.00;90.70;;;;;;5001632;28;20038;-74
2021/01/08 10:26:18;;;;;;;2.08;1.90;;;6.00;90.80;;;;;;4994119;28;20474;-74
2021/01/08 10:28:51;;;;;;;2.40;2.05;;;6.00;90.90;;;;;;5008773;28;20099;-73
2021/01/08 10:31:17;;;;;;;3.10;2.50;;;6.00;90.50;;;;;;5013496;28;20086;-76
2021/01/08 10:33:44;;;;;;;3.47;2.40;;;6.10;90.60;;;;;;4999226;28;20030;-74
2021/01/08 10:36:10;;;;;;;2.38;2.17;;;6.10;90.60;;;;;;4999437;28;20026;-75
2021/01/08 10:38:36;;;;;;;2.60;2.40;;;6.30;90.60;;;;;;5002017;28;20017;-77
2021/01/08 10:41:01;;;;;;;2.30;2.10;;;6.30;90.20;;;;;;5028556;28;20180;-75
2021/01/08 10:43:31;;;;;;;2.58;2.38;;;6.10;90.00;;;;;;5031109;28;20022;-74
2021/01/08 10:45:56;;;;;;;3.33;2.38;;;6.10;90.40;;;;;;5018541;28;20022;-73
2021/01/08 10:48:22;;;;;;;2.22;2.03;;;6.10;90.40;;;;;;4996056;28;20026;-76
2021/01/08 10:50:49;;;;;;;2.10;2.00;;;6.20;90.70;;;;;;4991427;28;20030;-79
2021/01/08 10:53:14;;;;;;;2.30;2.10;;;6.20;90.50;;;;;;4993472;28;20382;-75
2021/01/08 10:55:40;;;;;;;3.10;2.15;;;6.30;90.40;;;;;;5005534;28;20036;-70
2021/01/08 10:58:05;;;;;;;2.05;1.90;;;6.30;89.80;;;;;;5012068;28;20101;-69
2021/01/08 11:00:31;;;;;;;2.67;2.42;;;6.30;90.10;;;;;;5011759;28;20441;-73
2021/01/08 11:02:56;;;;;;;2.00;1.90;;;6.40;90.00;;;;;;5010072;28;20040;-73
2021/01/08 11:05:22;;;;;;;2.40;2.20;;;6.40;90.00;;;;;;4999946;28;20022;-75
2021/01/08 11:07:48;;;;;;;2.63;2.42;;;6.40;90.10;;;;;;5010753;28;20461;-71
2021/01/08 11:10:15;;;;;;;2.35;2.15;;;6.40;90.00;;;;;;5012119;28;20030;-69
2021/01/08 11:12:40;;;;;;;2.63;2.30;;;6.50;90.00;;;;;;5011079;28;20030;-73
2021/01/08 11:15:07;;;;;;;2.75;2.28;;;6.60;90.20;;;;;;5012419;28;20030;-72
2021/01/08 11:17:32;;;;;;;2.58;2.38;;;6.60;90.30;;;;;;5013064;28;20021;-72
2021/01/08 11:19:58;;;;;;;3.58;2.65;;;6.60;90.00;;;;;;5011243;28;20025;-71
2021/01/08 11:22:27;;;;;;;3.88;2.80;;;6.50;89.10;;;;;;5010560;28;20281;-72
2021/01/08 11:24:53;;;;;;;3.78;2.85;;;6.40;89.00;;;;;;5011044;28;20512;-68
2021/01/08 11:27:19;;;;;;;2.53;2.33;;;6.40;90.00;;;;;;5008011;28;20026;-71
2021/01/08 11:29:44;;;;;;;2.65;2.20;;;6.40;90.20;;;;;;5004156;28;20517;-68
2021/01/08 11:32:10;;;;;;;2.92;2.40;;;6.40;90.00;;;;;;5010340;28;20044;-69
2021/01/08 11:34:39;;;;;;;3.65;2.30;;;6.30;89.20;;;;;;5011228;28;20022;-71
2021/01/08 11:37:06;;;;;;;2.60;2.40;;;6.10;89.80;;;;;;5011382;28;20030;-74
2021/01/08 11:39:32;;;;;;;2.45;2.25;;;6.10;90.20;;;;;;5008283;28;20038;-70
2021/01/08 11:41:57;;;;;;;3.28;2.97;;;6.20;90.50;;;;;;4992649;28;20502;-71
2021/01/08 11:44:23;;;;;;;3.45;2.47;;;6.10;90.10;;;;;;4992326;28;20019;-74
2021/01/08 11:46:50;;;;;;;4.60;2.58;;;6.10;90.30;;;;;;4992121;28;20443;-69
2021/01/08 11:49:16;;;;;;;3.22;2.50;;;6.10;90.30;;;;;;5007974;28;20084;-74
2021/01/08 11:51:42;;;;;;;2.15;2.00;;;6.20;90.40;;;;;;5012262;28;20065;-68
2021/01/08 11:54:08;;;;;;;2.42;2.17;;;6.20;90.50;;;;;;5009383;28;20061;-67
2021/01/08 11:56:33;;;;;;;3.45;2.30;;;6.20;90.20;;;;;;5009191;28;20569;-68
2021/01/08 11:58:59;;;;;;;3.10;2.28;;;6.20;90.30;;;;;;5006759;28;20378;-72
2021/01/08 12:01:25;;;;;;;2.40;2.20;;;6.20;90.30;;;;;;5012657;28;20564;-75
2021/01/08 12:03:52;;;;;;;2.22;2.00;;;6.20;90.10;;;;;;5032159;28;20355;-71
2021/01/08 12:06:18;;;;;;;3.15;2.10;;;6.10;89.80;;;;;;5015766;28;20482;-76
2021/01/08 12:08:43;;;;;;;2.58;2.38;;;6.10;90.10;;;;;;5024810;28;20512;-73
2021/01/08 12:11:15;;;;;;;2.80;2.30;;;6.10;90.20;;;;;;5031725;28;20033;-78
2021/01/08 12:13:42;;;;;;;1.70;1.60;;;6.10;90.30;;;;;;5030880;28;20030;-79
2021/01/08 12:16:08;;;;;;;2.80;2.00;;;6.10;90.10;;;;;;5025611;28;20117;-74
2021/01/08 12:18:34;;;;;;;2.67;2.42;;;6.10;89.90;;;;;;5012543;28;20100;-85
2021/01/08 12:21:00;;;;;;;2.22;2.00;;;6.10;90.00;;;;;;5008940;28;20490;-77
2021/01/08 12:23:25;;;;;;;2.47;2.28;;;6.20;89.80;;;;;;5003401;28;20025;-73
2021/01/08 12:25:50;;;;;;;3.13;2.30;;;6.20;90.00;;;;;;5027751;28;20056;-74
2021/01/08 12:28:16;;;;;;;2.85;2.55;;;6.30;90.00;;;;;;5031364;28;20017;-71
2021/01/08 12:30:43;;;;;;;2.22;2.03;;;6.30;89.70;;;;;;5015045;28;20034;-74
2021/01/08 12:33:08;;;;;;;2.45;2.25;;;6.30;89.10;;;;;;5010222;28;20030;-76
2021/01/08 12:35:34;;;;;;;2.30;2.10;;;6.20;88.60;;;;;;5011486;28;20026;-72
2021/01/08 12:38:00;;;;;;;3.35;1.98;;;6.20;88.50;;;;;;5008031;28;20513;-74
2021/01/08 12:40:25;;;;;;;1.75;1.60;;;6.30;88.80;;;;;;5019541;28;20025;-73
2021/01/08 12:42:54;;;;;;;3.10;2.30;;;6.30;87.50;;;;;;5031436;28;20112;-75
2021/01/08 12:45:21;;;;;;;2.13;1.92;;;6.30;87.50;;;;;;5014389;28;20474;-71
2021/01/08 12:47:47;;;;;;;6.20;2.10;;;6.40;87.40;;;;;;5002980;28;20113;-68
2021/01/08 12:50:13;;;;;;;2.85;2.20;;;6.40;87.70;;;;;;4996925;28;20117;-70
2021/01/08 12:52:39;;;;;;;2.05;1.80;;;6.40;87.90;;;;;;5010926;28;20034;-72
2021/01/08 12:55:06;;;;;;;2.35;2.15;;;6.40;87.60;;;;;;5008462;28;20462;-71
2021/01/08 12:57:32;;;;;;;2.78;2.42;;;6.40;87.10;;;;;;5011860;28;20053;-72
2021/01/08 12:59:58;;;;;;;2.33;1.98;;;6.40;87.60;;;;;;4994098;28;20487;-72